TimePDT,TemperatureF,Dew PointF,Humidity,Sea Level PressureIn,VisibilityMPH,Wind Direction,Wind SpeedMPH,Gust SpeedMPH,PrecipitationIn,Events,Conditions,WindDirDegrees,DateUTC
12:53 AM,59.0,52.0,78,29.99,10.0,South,6.9,-,N/A,,Clear,180,2013-07-17 07:53:00
1:53 AM,57.9,51.1,78,29.99,10.0,South,6.9,-,N/A,,Clear,180,2013-07-17 08:53:00
2:53 AM,57.0,51.1,81,29.99,10.0,South,9.2,-,N/A,,Clear,190,2013-07-17 09:53:00
3:53 AM,57.0,51.1,81,30.00,10.0,South,5.8,-,N/A,,Clear,180,2013-07-17 10:53:00
4:53 AM,55.0,50.0,83,30.01,10.0,Calm,Calm,-,N/A,,Clear,0,2013-07-17 11:53:00
5:53 AM,53.1,50.0,89,30.02,10.0,Calm,Calm,-,N/A,,Clear,0,2013-07-17 12:53:00
6:53 AM,54.0,51.1,90,30.04,10.0,Calm,Calm,-,N/A,,Clear,0,2013-07-17 13:53:00
7:07 AM,55.4,51.8,88,30.04,10.0,Calm,Calm,-,N/A,,Scattered Clouds,0,2013-07-17 14:07:00
7:53 AM,55.9,51.1,84,30.05,10.0,Calm,Calm,-,N/A,,Scattered Clouds,0,2013-07-17 14:53:00
8:28 AM,57.2,51.8,82,30.06,10.0,WSW,5.8,-,N/A,,Mostly Cloudy,250,2013-07-17 15:28:00
8:35 AM,57.2,51.8,82,30.07,9.0,Variable,4.6,-,N/A,,Scattered Clouds,0,2013-07-17 15:35:00
8:53 AM,57.9,52.0,81,30.07,10.0,WSW,6.9,-,N/A,,Scattered Clouds,240,2013-07-17 15:53:00
9:53 AM,64.0,52.0,65,30.07,10.0,Calm,Calm,-,N/A,,Clear,0,2013-07-17 16:53:00
10:53 AM,70.0,52.0,53,30.06,10.0,Calm,Calm,-,N/A,,Clear,0,2013-07-17 17:53:00
11:53 AM,77.0,51.1,40,30.05,10.0,Variable,4.6,-,N/A,,Clear,0,2013-07-17 18:53:00
12:53 PM,82.0,50.0,33,30.04,10.0,NNE,5.8,-,N/A,,Clear,20,2013-07-17 19:53:00
1:53 PM,84.9,50.0,30,30.03,10.0,Variable,4.6,-,N/A,,Clear,0,2013-07-17 20:53:00
2:53 PM,87.1,48.0,26,30.01,10.0,Variable,4.6,-,N/A,,Clear,0,2013-07-17 21:53:00
3:53 PM,89.1,42.1,19,29.99,10.0,WSW,4.6,-,N/A,,Clear,240,2013-07-17 22:53:00
4:53 PM,90.0,46.0,22,29.98,10.0,Calm,Calm,-,N/A,,Clear,0,2013-07-17 23:53:00
5:53 PM,90.0,48.9,24,29.96,10.0,Variable,6.9,-,N/A,,Clear,0,2013-07-18 00:53:00
6:53 PM,87.1,53.1,31,29.96,10.0,SSW,10.4,-,N/A,,Clear,210,2013-07-18 01:53:00
7:53 PM,81.0,52.0,36,29.97,10.0,SW,8.1,-,N/A,,Clear,220,2013-07-18 02:53:00
8:53 PM,73.0,54.0,51,29.97,10.0,SSW,8.1,-,N/A,,Clear,210,2013-07-18 03:53:00
9:53 PM,68.0,53.1,59,29.99,10.0,SSW,8.1,-,N/A,,Clear,200,2013-07-18 04:53:00
10:53 PM,66.9,52.0,59,29.99,10.0,SSW,5.8,-,N/A,,Clear,200,2013-07-18 05:53:00
11:53 PM,63.0,52.0,67,30.00,10.0,Calm,Calm,-,N/A,,Clear,0,2013-07-18 06:53:00